Flight Track Log - Related Links

Times and Time Zones

All times are in EDT time to prevent confusion due to time zone crossing. See the AWE235 flight status page for this flight to view local times or setup timezone preferences in your user account.

Time Position Orientation Groundspeed Altitude Reporting Facility
EDT Latitude Longitude Course Direction KTS MPH feet Rate Location/Type
Wed 09:02:40 PM 42.2033 -83.3722 270° West 157 181 1,600  Level Cleveland Center
Wed 09:03:53 PM 42.1600 -83.4319 226° Southwest 213 245 3,700 2,194 Climbing Cleveland Center
Wed 09:04:54 PM 42.1292 -83.5006 239° Southwest 231 266 6,500 2,628 Climbing Cleveland Center
Wed 09:05:54 PM 42.1625 -83.5861 298° West 276 318 9,000 2,644 Climbing Cleveland Center
Wed 09:06:52 PM 42.1978 -83.6692 300° West 283 326 11,700 2,186 Climbing Cleveland Center
Wed 09:07:52 PM 42.2369 -83.7608 300° West 289 333 13,300 1,900 Climbing Cleveland Center
Wed 09:08:00 PM 42.4167 -84.1799 270° West  Level FlightAware Approximate
Wed 09:08:52 PM 42.2717 -83.8608 295° West 289 333 15,500  Level Cleveland Center
Wed 09:09:52 PM 42.2942 -83.9464 290° West 297 342 17,300 1,550 Climbing Cleveland Center
Wed 09:10:52 PM 42.3261 -84.0686 290° West 310 357 18,600 1,100 Climbing Cleveland Center
Wed 09:11:52 PM 42.3575 -84.1969 288° West 337 388 19,500 1,450 Climbing Cleveland Center
Wed 09:12:52 PM 42.3906 -84.3367 288° West 372 428 21,500 1,800 Climbing Cleveland Center
Wed 09:13:52 PM 42.4236 -84.4736 288° West 382 440 23,100 1,669 Climbing Cleveland Center
Wed 09:15:05 PM 42.4394 -84.6519 277° West 393 452 25,200 1,511 Climbing Chicago Center
Wed 09:16:07 PM 42.4433 -84.7972 272° West 388 447 26,500 1,113 Climbing Chicago Center
Wed 09:17:09 PM 42.4464 -84.9489 272° West 400 460 27,500 1,210 Climbing Chicago Center
Wed 09:18:11 PM 42.4494 -85.1033 272° West 408 470 29,000 1,355 Climbing Chicago Center
Wed 09:19:13 PM 42.4489 -85.2872 270° West 410 472 30,300 968 Climbing Chicago Center
Wed 09:20:15 PM 42.4233 -85.4361 257° West 407 468 31,000 339 Climbing Chicago Center
Wed 09:21:17 PM 42.3992 -85.5844 258° West 405 466 31,000  Level Chicago Center
Wed 09:22:20 PM 42.3683 -85.7289 254° West 400 460 31,000 384 Level Chicago Center
Wed 09:23:22 PM 42.3292 -85.8700 249° West 402 463 31,800 919 Climbing Chicago Center
Wed 09:24:24 PM 42.2908 -86.0150 250° West 407 468 32,900 581 Climbing Chicago Center
Wed 09:25:26 PM 42.2519 -86.1675 251° West 402 463 33,000 435 Climbing Chicago Center
Wed 09:26:28 PM 42.2147 -86.3078 250° West 400 460 33,800 484 Climbing Chicago Center
Wed 09:27:30 PM 42.1769 -86.4506 250° West 405 466 34,000 97 Climbing Chicago Center
Wed 09:28:32 PM 42.1317 -86.6197 250° West 405 466 34,000  Level Chicago Center
Wed 09:29:36 PM 42.0936 -86.7625 250° West 407 468 34,000  Level Chicago Center
Wed 09:30:36 PM 42.0556 -86.9044 250° West 406 467 34,000  Level Chicago Center
Wed 09:31:38 PM 42.0164 -87.0464 250° West 407 468 34,000  Level Chicago Center
Wed 09:32:41 PM 41.9764 -87.1878 249° West 405 466 34,000  Level Chicago Center
Wed 09:33:43 PM 41.9261 -87.3550 248° West 403 464 34,000  Level Chicago Center
Wed 09:34:45 PM 41.8856 -87.4925 248° West 405 466 34,000  Level Chicago Center
Wed 09:35:47 PM 41.8428 -87.6342 248° West 407 468 34,000  Level Chicago Center
Wed 09:36:49 PM 41.8133 -87.7794 255° West 405 466 34,000  Level Chicago Center
Wed 09:37:51 PM 41.7850 -87.9483 257° West 399 459 34,000  Level Chicago Center
Wed 09:38:53 PM 41.7603 -88.0967 257° West 403 464 34,000  Level Chicago Center
Wed 09:39:55 PM 41.7378 -88.2403 258° West 403 464 34,000  Level Chicago Center
Wed 09:40:57 PM 41.7114 -88.3842 256° West 401 461 34,000  Level Chicago Center
Wed 09:41:59 PM 41.6856 -88.5303 257° West 401 461 34,000  Level Chicago Center
Wed 09:43:01 PM 41.6614 -88.6792 258° West 408 470 34,000  Level Chicago Center
Wed 09:44:03 PM 41.6303 -88.8531 257° West 403 464 34,000  Level Chicago Center
Wed 09:45:05 PM 41.6039 -89.0006 257° West 406 467 34,000  Level Chicago Center
Wed 09:46:06 PM 41.5775 -89.1464 256° West 405 466 34,000  Level Chicago Center
Wed 09:47:08 PM 41.5519 -89.2908 257° West 401 461 34,000  Level Chicago Center
Wed 09:48:10 PM 41.5247 -89.4367 256° West 405 466 34,000  Level Chicago Center
Wed 09:49:12 PM 41.5000 -89.5825 257° West 404 465 34,000  Level Chicago Center
Wed 09:50:14 PM 41.4672 -89.7550 256° West 403 464 34,000  Level Chicago Center
Wed 09:51:16 PM 41.4414 -89.8969 256° West 398 458 34,000  Level Chicago Center
Wed 09:52:17 PM 41.4139 -90.0406 256° West 400 460 34,000  Level Chicago Center
Wed 09:53:19 PM 41.3875 -90.1822 256° West 398 458 34,000  Level Chicago Center
Wed 09:54:21 PM 41.3594 -90.3247 255° West 399 459 34,000  Level Chicago Center
Wed 09:55:23 PM 41.3322 -90.4689 256° West 402 463 34,000  Level Chicago Center
Wed 09:56:24 PM 41.2994 -90.6386 256° West 398 458 34,000  Level Chicago Center
Wed 09:57:26 PM 41.2708 -90.7811 255° West 400 460 34,000  Level Chicago Center
Wed 09:58:28 PM 41.2433 -90.9219 255° West 396 456 34,000  Level Chicago Center
Wed 09:59:29 PM 41.2144 -91.0669 255° West 402 463 34,000  Level Chicago Center
Wed 10:00:31 PM 41.1869 -91.2092 256° West 402 463 34,000  Level Chicago Center
Wed 10:01:33 PM 41.1581 -91.3528 255° West 401 461 34,000  Level Chicago Center
Wed 10:02:34 PM 41.1283 -91.4958 255° West 403 464 34,000  Level Chicago Center
Wed 10:03:36 PM 41.0997 -91.6406 255° West 406 467 34,000  Level Chicago Center
Wed 10:04:37 PM 41.0658 -91.8050 255° West 400 460 34,000  Level Chicago Center
Wed 10:05:39 PM 41.0364 -91.9464 255° West 402 463 34,000  Level Chicago Center
Wed 10:06:40 PM 41.0078 -92.0844 255° West 397 457 34,000  Level Chicago Center
Wed 10:07:42 PM 40.9786 -92.2247 255° West 398 458 34,000  Level Chicago Center
Wed 10:08:43 PM 40.9431 -92.3900 254° West 396 456 34,000  Level Chicago Center
Wed 10:09:45 PM 40.9144 -92.5275 255° West 394 453 34,000  Level Chicago Center
Wed 10:10:46 PM 40.8850 -92.6667 254° West 397 457 34,000  Level Chicago Center
Wed 10:11:48 PM 40.8556 -92.8047 254° West 397 457 34,000  Level Chicago Center
Wed 10:12:49 PM 40.8256 -92.9428 254° West 396 456 34,000  Level Chicago Center
Wed 10:13:51 PM 40.7950 -93.0808 254° West 397 457 34,000  Level Chicago Center
Wed 10:14:52 PM 40.7589 -93.2456 254° West 395 455 34,000  Level Chicago Center
Wed 10:15:53 PM 40.7283 -93.3825 254° West 395 455 34,000  Level Chicago Center
Wed 10:16:55 PM 40.6975 -93.5206 254° West 397 457 34,000  Level Chicago Center
Wed 10:17:56 PM 40.6672 -93.6569 254° West 394 453 34,000  Level Chicago Center
Wed 10:18:57 PM 40.6358 -93.7944 253° West 395 455 34,000  Level Chicago Center
Wed 10:19:59 PM 40.6047 -93.9336 254° West 399 459 34,000  Level Chicago Center
Wed 10:21:00 PM 40.5617 -94.0956 251° West 397 457 34,000  Level Chicago Center
Wed 10:22:15 PM 40.5144 -94.2603 249° West 399 459 34,000  Level Minneapolis Center
Wed 10:23:16 PM 40.4722 -94.3983 248° West 405 466 34,000  Level Minneapolis Center
Wed 10:24:18 PM 40.4311 -94.5347 248° West 406 467 34,000  Level Minneapolis Center
Wed 10:25:19 PM 40.3928 -94.6733 250° West 401 461 34,000  Level Minneapolis Center
Wed 10:26:20 PM 40.3522 -94.8242 251° West 403 464 34,000  Level Kansas City Center
Wed 10:27:21 PM 40.3136 -94.9528 249° West 400 460 34,000  Level Kansas City Center
Wed 10:28:23 PM 40.2686 -95.1053 249° West 401 461 34,000  Level Kansas City Center
Wed 10:29:24 PM 40.2247 -95.2500 248° West 403 464 34,000  Level Minneapolis Center
Wed 10:30:26 PM 40.1844 -95.3869 249° West 404 465 34,000  Level Minneapolis Center
Wed 10:31:27 PM 40.1431 -95.5247 249° West 405 466 34,000  Level Minneapolis Center
Wed 10:32:28 PM 40.1025 -95.6606 249° West 403 464 34,000  Level Minneapolis Center
Wed 10:33:30 PM 40.0608 -95.7972 248° West 403 464 34,000  Level Minneapolis Center
Wed 10:34:31 PM 40.0211 -95.9331 249° West 402 463 34,000  Level Kansas City Center
Wed 10:35:32 PM 39.9811 -96.0628 248° West 402 463 34,000  Level Kansas City Center
Wed 10:36:36 PM 39.9389 -96.1997 248° West 403 464 34,000  Level Kansas City Center
Wed 10:37:37 PM 39.8981 -96.3367 249° West 405 466 34,000  Level Kansas City Center
Wed 10:38:36 PM 39.8483 -96.5008 249° West 408 470 34,000  Level Kansas City Center
Wed 10:39:37 PM 39.8069 -96.6383 249° West 407 468 34,000  Level Kansas City Center
Wed 10:40:41 PM 39.7711 -96.7594 249° West 410 472 34,000  Level Kansas City Center
Wed 10:41:42 PM 39.7478 -96.9017 258° West 404 465 34,000  Level Kansas City Center
Wed 10:42:41 PM 39.7297 -97.0414 261° West 398 458 34,000  Level Kansas City Center
Wed 10:43:43 PM 39.7078 -97.2017 260° West 397 457 34,000  Level Kansas City Center
Wed 10:44:43 PM 39.6869 -97.3447 259° West 401 461 34,000  Level Kansas City Center
Wed 10:45:47 PM 39.6683 -97.4864 260° West 399 459 34,000  Level Kansas City Center
Wed 10:46:45 PM 39.6503 -97.6278 261° West 397 457 34,000  Level Kansas City Center
Wed 10:47:36 PM 39.6331 -97.7394 259° West 398 458 34,000  Level Minneapolis Center
Wed 10:48:37 PM 39.5919 -97.9036 252° West 398 458 34,000  Level Minneapolis Center
Wed 10:49:50 PM 39.5575 -98.0486 253° West 398 458 34,000  Level Kansas City Center
Wed 10:51:24 PM 39.4692 -98.2497 240° Southwest 414 476 34,000  Level Denver Center
Wed 10:52:26 PM 39.4108 -98.3778 240° Southwest 413 475 34,000  Level Denver Center
Wed 10:53:27 PM 39.3400 -98.5308 239° Southwest 413 475 34,000  Level Denver Center
Wed 10:54:30 PM 39.2822 -98.6578 240° Southwest 411 473 34,000  Level Denver Center
Wed 10:55:33 PM 39.2228 -98.7908 240° Southwest 410 472 34,000  Level Kansas City Center
Wed 10:56:35 PM 39.1689 -98.9147 241° Southwest 409 471 34,000  Level Kansas City Center
Wed 10:57:36 PM 39.1136 -99.0433 241° Southwest 410 472 34,000  Level Kansas City Center
Wed 10:58:37 PM 39.0594 -99.1728 242° Southwest 412 474 34,000  Level Kansas City Center
Wed 10:59:39 PM 39.0089 -99.3031 243° Southwest 409 471 34,000  Level Kansas City Center
Wed 11:00:39 PM 38.9794 -99.4394 255° West 401 461 34,000  Level Kansas City Center
Wed 11:02:44 PM 38.9108 -99.7353 253° West 397 457 34,000  Level Denver Center
Wed 11:03:46 PM 38.8761 -99.8911 254° West 405 466 34,000  Level Denver Center
Wed 11:04:48 PM 38.8453 -100.0219 253° West 403 464 34,000  Level Denver Center
Wed 11:05:50 PM 38.8103 -100.1778 254° West 408 470 34,000  Level Denver Center
Wed 11:06:52 PM 38.7800 -100.3097 254° West 407 468 34,000  Level Denver Center
Wed 11:07:54 PM 38.7489 -100.4417 253° West 404 465 34,000  Level Denver Center
Wed 11:08:55 PM 38.7122 -100.5989 253° West 411 473 34,000  Level Denver Center
Wed 11:09:57 PM 38.6817 -100.7317 254° West 409 471 34,000  Level Denver Center
Wed 11:10:59 PM 38.6444 -100.8881 253° West 412 474 34,000  Level Denver Center
Wed 11:12:01 PM 38.6128 -101.0222 253° West 413 475 34,000  Level Denver Center
Wed 11:13:02 PM 38.5750 -101.1772 253° West 411 473 34,000  Level Denver Center
Wed 11:14:04 PM 38.5436 -101.3117 253° West 413 475 34,000  Level Denver Center
Wed 11:15:06 PM 38.5053 -101.4667 253° West 414 476 34,000  Level Denver Center
Wed 11:16:08 PM 38.4731 -101.6000 253° West 414 476 34,000  Level Denver Center
Wed 11:17:09 PM 38.4242 -101.7547 248° West 422 486 34,000  Level Denver Center
Wed 11:18:11 PM 38.3800 -101.8867 247° West 423 487 34,000  Level Denver Center
Wed 11:19:13 PM 38.3353 -102.0169 246° West 422 486 34,000  Level Denver Center
Wed 11:20:15 PM 38.2836 -102.1692 247° West 422 486 34,000  Level Denver Center
Wed 11:21:16 PM 38.2397 -102.2986 247° West 418 481 34,000  Level Denver Center
Wed 11:22:18 PM 38.1878 -102.4511 247° West 422 486 34,000  Level Denver Center
Wed 11:23:20 PM 38.1419 -102.5814 246° West 423 487 34,000  Level Denver Center
Wed 11:24:22 PM 38.0886 -102.7333 246° West 423 487 34,000  Level Denver Center
Wed 11:25:23 PM 38.0439 -102.8650 247° West 425 489 34,000  Level Denver Center
Wed 11:26:25 PM 37.9939 -103.0061 246° West 425 489 34,000  Level Denver Center
Wed 11:27:27 PM 37.9403 -103.1592 246° West 426 490 34,000  Level Denver Center
Wed 11:28:28 PM 37.8942 -103.2892 246° West 424 488 34,000  Level Denver Center
Wed 11:29:42 PM 37.8489 -103.4175 246° West 418 481 34,000  Level Denver Center
Wed 11:30:44 PM 37.7883 -103.5906 246° West 421 484 34,000  Level Denver Center
Wed 11:31:46 PM 37.7339 -103.7408 245° Southwest 420 483 34,000  Level Denver Center
Wed 11:32:47 PM 37.6881 -103.8700 246° West 424 488 34,000  Level Denver Center
Wed 11:33:49 PM 37.6364 -104.0211 247° West 428 493 34,000  Level Denver Center
Wed 11:34:51 PM 37.5875 -104.1492 244° Southwest 433 498 34,000  Level Denver Center
Wed 11:35:52 PM 37.5336 -104.2922 245° Southwest 410 472 34,000  Level Denver Center
Wed 11:36:54 PM 37.4883 -104.4156 245° Southwest 408 470 34,000  Level Denver Center
Wed 11:37:55 PM 37.4342 -104.5619 245° Southwest 413 475 34,000  Level Denver Center
Wed 11:39:09 PM 37.3811 -104.7094 246° West 414 476 34,000 397 Level Denver Center
Wed 11:40:11 PM 37.3256 -104.8553 244° Southwest 414 476 34,900 976 Climbing Denver Center
Wed 11:41:12 PM 37.2794 -104.9783 245° Southwest 411 473 36,000 537 Climbing Denver Center
Wed 11:42:14 PM 37.2342 -105.1019 245° Southwest 408 470 36,000  Level Denver Center
Wed 11:43:15 PM 37.1797 -105.2456 245° Southwest 408 470 36,000  Level Denver Center
Wed 11:44:17 PM 37.1328 -105.3675 244° Southwest 406 467 36,000  Level Denver Center
Wed 11:45:18 PM 37.0797 -105.5103 245° Southwest 404 465 36,000  Level Denver Center
Wed 11:46:20 PM 37.0333 -105.6306 244° Southwest 403 464 36,000  Level Denver Center
Wed 11:47:21 PM 36.9789 -105.7725 244° Southwest 404 465 36,000  Level Denver Center
Wed 11:48:23 PM 36.9314 -105.8947 244° Southwest 407 468 36,000  Level Denver Center
Wed 11:49:24 PM 36.8856 -106.0167 245° Southwest 406 467 36,000  Level Denver Center
Wed 11:50:25 PM 36.8456 -106.1164 243° Southwest 403 464 36,000  Level Denver Center
Wed 11:51:27 PM 36.7817 -106.2797 244° Southwest 404 465 36,000  Level Denver Center
Wed 11:52:28 PM 36.7300 -106.4150 245° Southwest 408 470 36,000  Level Denver Center
Wed 11:53:30 PM 36.6786 -106.5447 244° Southwest 410 472 36,000  Level Denver Center
Wed 11:54:31 PM 36.6303 -106.6672 244° Southwest 411 473 36,000  Level Denver Center
Wed 11:55:33 PM 36.5744 -106.8117 244° Southwest 415 478 36,000  Level Denver Center
Wed 11:56:34 PM 36.5247 -106.9336 243° Southwest 413 475 36,000  Level Denver Center
Wed 11:57:36 PM 36.4758 -107.0550 243° Southwest 412 474 36,000  Level Denver Center
Wed 11:58:37 PM 36.4281 -107.1775 244° Southwest 411 473 36,000  Level Denver Center
Wed 11:59:38 PM 36.3706 -107.3208 244° Southwest 411 473 36,000  Level Albuquerque Center
Thu 12:00:39 AM 36.3131 -107.4639 244° Southwest 413 475 36,000  Level Albuquerque Center
Thu 12:01:40 AM 36.2631 -107.5858 243° Southwest 413 475 36,000  Level Albuquerque Center
Thu 12:02:41 AM 36.2111 -107.7069 242° Southwest 415 478 36,000  Level Albuquerque Center
Thu 12:03:42 AM 36.1317 -107.8347 232° Southwest 418 481 36,000  Level Albuquerque Center
Thu 12:04:44 AM 36.0642 -107.9439 233° Southwest 417 480 36,000  Level Albuquerque Center
Thu 12:05:45 AM 35.9958 -108.0522 232° Southwest 416 479 36,000  Level Albuquerque Center
Thu 12:06:46 AM 35.9167 -108.1786 232° Southwest 416 479 36,000  Level Albuquerque Center
Thu 12:07:47 AM 35.8481 -108.2881 232° Southwest 417 480 36,000  Level Albuquerque Center
Thu 12:08:48 AM 35.7800 -108.3967 232° Southwest 417 480 36,000  Level Albuquerque Center
Thu 12:09:50 AM 35.6967 -108.5261 232° Southwest 424 488 36,000  Level Albuquerque Center
Thu 12:10:51 AM 35.6225 -108.6386 231° Southwest 434 499 36,000 -246 Level Albuquerque Center
Thu 12:11:52 AM 35.5447 -108.7444 228° Southwest 435 501 35,500 -1,033 Descending Albuquerque Center
Thu 12:12:53 AM 35.4528 -108.8678 228° Southwest 435 501 33,900 -1,525 Descending Albuquerque Center
Thu 12:13:54 AM 35.3736 -108.9739 228° Southwest 438 504 32,400 -934 Descending Albuquerque Center
Thu 12:14:55 AM 35.2778 -109.1003 227° Southwest 447 514 32,000 -195 Descending Albuquerque Center
Thu 12:15:57 AM 35.1956 -109.2097 227° Southwest 452 520 32,000  Level Albuquerque Center
Thu 12:16:58 AM 35.1144 -109.3186 228° Southwest 452 520 32,000  Level Albuquerque Center
Thu 12:17:59 AM 35.0200 -109.4453 228° Southwest 451 519 32,000  Level Albuquerque Center
Thu 12:19:00 AM 34.9367 -109.5536 227° Southwest 455 524 32,000  Level Albuquerque Center
Thu 12:20:01 AM 34.8556 -109.6617 228° Southwest 453 521 32,000  Level Albuquerque Center
Thu 12:21:02 AM 34.7600 -109.7878 227° Southwest 453 521 32,000  Level Albuquerque Center
Thu 12:22:03 AM 34.6903 -109.9111 236° Southwest 456 525 32,000  Level Albuquerque Center
Thu 12:23:04 AM 34.6381 -110.0483 245° Southwest 464 534 32,000  Level Albuquerque Center
Thu 12:24:05 AM 34.5794 -110.2106 246° West 468 539 32,000  Level Albuquerque Center
Thu 12:25:06 AM 34.5269 -110.3414 244° Southwest 458 527 32,000 -195 Level Albuquerque Center
Thu 12:26:08 AM 34.4814 -110.4689 247° West 454 522 31,600 -1,415 Descending Albuquerque Center
Thu 12:27:09 AM 34.4222 -110.6272 246° West 435 501 29,100 -2,213 Descending Albuquerque Center
Thu 12:28:10 AM 34.3717 -110.7544 244° Southwest 423 487 27,100 -1,967 Descending Albuquerque Center
Thu 12:29:11 AM 34.3017 -110.8631 232° Southwest 412 474 25,100 -1,869 Descending Albuquerque Center
Thu 12:30:12 AM 34.2292 -110.9583 227° Southwest 392 451 23,300 -1,770 Descending Albuquerque Center
Thu 12:31:13 AM 34.1556 -111.0519 226° Southwest 386 444 21,500 -1,721 Descending Albuquerque Center
Thu 12:32:14 AM 34.0856 -111.1433 227° Southwest 375 432 19,800 -1,721 Descending Albuquerque Center
Thu 12:33:15 AM 34.0175 -111.2303 227° Southwest 363 418 18,000 -1,770 Descending Albuquerque Center
Thu 12:34:16 AM 33.9522 -111.3147 227° Southwest 348 400 16,200 -1,426 Descending Albuquerque Center
Thu 12:35:17 AM 33.8878 -111.3961 226° Southwest 335 386 15,100 -1,131 Descending Albuquerque Center
Thu 12:36:18 AM 33.8381 -111.4858 236° Southwest 322 371 13,900 -1,377 Descending Albuquerque Center
Thu 12:37:19 AM 33.7922 -111.5758 239° Southwest 315 362 12,300 -1,525 Descending Albuquerque Center
Thu 12:38:20 AM 33.7458 -111.6631 237° Southwest 310 357 10,800 -1,230 Descending Albuquerque Center
Thu 12:39:21 AM 33.7003 -111.7469 237° Southwest 297 342 9,800 -689 Descending Albuquerque Center
Thu 12:40:22 AM 33.6558 -111.8292 237° Southwest 294 338 9,400 -393 Descending Albuquerque Center
Thu 12:41:23 AM 33.6139 -111.9050 236° Southwest 274 315 9,000 -590 Descending Albuquerque Center
Thu 12:42:24 AM 33.5767 -111.9744 237° Southwest 250 288 8,200 -793 Descending Albuquerque Center
Thu 12:43:24 AM 33.5419 -112.0417 238° Southwest 240 276 7,400 -744 Descending Albuquerque Center
Thu 12:44:25 AM 33.5267 -112.1269 258° West 218 251 6,700 -836 Descending Albuquerque Center
Thu 12:45:26 AM 33.4958 -112.1706 230° Southwest 202 232 5,700 -1,525 Descending Albuquerque Center
Thu 12:46:27 AM 33.4467 -112.1600 170° South 193 222 3,600 -1,721 Descending Albuquerque Center
Thu 12:47:28 AM 33.4411 -112.1000 96° East 188 216 2,200 -1,033 Descending Albuquerque Center
Thu 12:48:29 AM 33.4411 -112.0536 90° East 147 169 1,500 -590 Descending Albuquerque Center
Thu 12:49:30 AM 33.4414 -112.0050 90° East 136 157 1,000 -492 Descending Albuquerque Center

Login

Don't have an account? Register now (free) for customized features, flight alerts, and more!